Terminal Aerodrome Forecast
Issued by NWS

Home | Current Version | Previous Version | Graphics & Text | Print | Product List | Glossary On
Versions: 1 2 3 4 5 6 7 8 9 10 11 12 13 14 15 16 17 18 19 20 21
000
FTUS43 KLOT 120520
TAFGYY
TAF
KGYY 120520Z 1206/1306 32020G30KT P6SM OVC025
      TEMPO 1207/1210 -SHSN OVC020
     FM121300 31015G25KT P6SM SCT035 SCT250
     FM130000 29012KT P6SM BKN100=

USA.gov is the U.S. government's official web portal to all federal, state and local government web resources and services.